sensor_id;sensor_type;location;lat;lon;timestamp;temperature;humidity
15949;DHT22;14848;50.954;6.642;2023-04-04T00:02:15;2.10;99.90
15949;DHT22;14848;50.954;6.642;2023-04-04T00:04:41;2.10;99.90
15949;DHT22;14848;50.954;6.642;2023-04-04T00:07:07;2.20;99.90
15949;DHT22;14848;50.954;6.642;2023-04-04T00:09:32;2.10;99.90
15949;DHT22;14848;50.954;6.642;2023-04-04T00:11:58;2.20;99.90
15949;DHT22;14848;50.954;6.642;2023-04-04T00:14:24;2.20;99.90
15949;DHT22;14848;50.954;6.642;2023-04-04T00:16:49;2.10;99.90
15949;DHT22;14848;50.954;6.642;2023-04-04T00:19:15;2.10;99.90
15949;DHT22;14848;50.954;6.642;2023-04-04T00:21:43;2.10;99.90
15949;DHT22;14848;50.954;6.642;2023-04-04T00:24:10;2.10;99.90
15949;DHT22;14848;50.954;6.642;2023-04-04T00:26:36;2.00;99.90
15949;DHT22;14848;50.954;6.642;2023-04-04T00:29:02;2.00;99.90
15949;DHT22;14848;50.954;6.642;2023-04-04T00:31:27;2.00;99.90
15949;DHT22;14848;50.954;6.642;2023-04-04T00:33:53;1.90;99.90
15949;DHT22;14848;50.954;6.642;2023-04-04T00:36:18;1.90;99.90
15949;DHT22;14848;50.954;6.642;2023-04-04T00:38:44;1.80;99.90
15949;DHT22;14848;50.954;6.642;2023-04-04T00:41:10;1.80;99.90
15949;DHT22;14848;50.954;6.642;2023-04-04T00:43:35;1.80;99.90
15949;DHT22;14848;50.954;6.642;2023-04-04T00:46:02;1.70;99.90
15949;DHT22;14848;50.954;6.642;2023-04-04T00:48:28;1.80;99.90
15949;DHT22;14848;50.954;6.642;2023-04-04T00:50:54;1.80;99.90
15949;DHT22;14848;50.954;6.642;2023-04-04T00:53:21;1.80;99.90
15949;DHT22;14848;50.954;6.642;2023-04-04T01:00:39;1.60;99.90
15949;DHT22;14848;50.954;6.642;2023-04-04T01:03:05;1.70;99.90
15949;DHT22;14848;50.954;6.642;2023-04-04T01:05:32;1.60;99.90
15949;DHT22;14848;50.954;6.642;2023-04-04T01:12:49;1.40;99.90
15949;DHT22;14848;50.954;6.642;2023-04-04T01:15:15;1.40;99.90
15949;DHT22;14848;50.954;6.642;2023-04-04T01:17:41;1.20;99.90
15949;DHT22;14848;50.954;6.642;2023-04-04T01:20:15;1.30;99.90
15949;DHT22;14848;50.954;6.642;2023-04-04T01:22:45;1.30;99.90
15949;DHT22;14848;50.954;6.642;2023-04-04T01:25:12;1.30;99.90
15949;DHT22;14848;50.954;6.642;2023-04-04T01:27:38;1.40;99.90
15949;DHT22;14848;50.954;6.642;2023-04-04T01:30:05;1.30;99.90
15949;DHT22;14848;50.954;6.642;2023-04-04T01:32:44;1.40;99.90
15949;DHT22;14848;50.954;6.642;2023-04-04T01:35:30;1.40;99.90
15949;DHT22;14848;50.954;6.642;2023-04-04T01:38:20;1.40;99.90
15949;DHT22;14848;50.954;6.642;2023-04-04T01:40:48;1.30;99.90
15949;DHT22;14848;50.954;6.642;2023-04-04T01:43:16;1.40;99.90
15949;DHT22;14848;50.954;6.642;2023-04-04T01:45:42;1.30;99.90
15949;DHT22;14848;50.954;6.642;2023-04-04T01:48:07;1.30;99.90
15949;DHT22;14848;50.954;6.642;2023-04-04T01:50:35;1.20;99.90
15949;DHT22;14848;50.954;6.642;2023-04-04T01:53:01;1.30;99.90
15949;DHT22;14848;50.954;6.642;2023-04-04T01:55:26;1.30;99.90
15949;DHT22;14848;50.954;6.642;2023-04-04T01:57:52;1.00;99.90
15949;DHT22;14848;50.954;6.642;2023-04-04T02:00:18;1.20;99.90
15949;DHT22;14848;50.954;6.642;2023-04-04T02:02:44;1.10;99.90
15949;DHT22;14848;50.954;6.642;2023-04-04T02:05:09;1.20;99.90
15949;DHT22;14848;50.954;6.642;2023-04-04T02:07:35;1.20;99.90
15949;DHT22;14848;50.954;6.642;2023-04-04T02:10:02;1.20;99.90
15949;DHT22;14848;50.954;6.642;2023-04-04T02:12:27;1.10;99.90
15949;DHT22;14848;50.954;6.642;2023-04-04T02:14:53;1.20;99.90
15949;DHT22;14848;50.954;6.642;2023-04-04T02:17:19;1.00;99.90
15949;DHT22;14848;50.954;6.642;2023-04-04T02:19:44;1.10;99.90
15949;DHT22;14848;50.954;6.642;2023-04-04T02:22:10;1.10;99.90
15949;DHT22;14848;50.954;6.642;2023-04-04T02:24:36;1.10;99.90
15949;DHT22;14848;50.954;6.642;2023-04-04T02:27:01;1.00;99.90
15949;DHT22;14848;50.954;6.642;2023-04-04T02:29:29;1.10;99.90
15949;DHT22;14848;50.954;6.642;2023-04-04T02:31:54;1.10;99.90
15949;DHT22;14848;50.954;6.642;2023-04-04T02:34:20;1.10;99.90
15949;DHT22;14848;50.954;6.642;2023-04-04T02:36:46;1.10;99.90
15949;DHT22;14848;50.954;6.642;2023-04-04T02:39:11;1.10;99.90
15949;DHT22;14848;50.954;6.642;2023-04-04T02:41:37;1.10;99.90
15949;DHT22;14848;50.954;6.642;2023-04-04T02:44:03;1.10;99.90
15949;DHT22;14848;50.954;6.642;2023-04-04T02:46:28;1.10;99.90
15949;DHT22;14848;50.954;6.642;2023-04-04T02:48:54;1.00;99.90
15949;DHT22;14848;50.954;6.642;2023-04-04T02:51:20;2.20;99.90
15949;DHT22;14848;50.954;6.642;2023-04-04T02:53:45;1.10;99.90
15949;DHT22;14848;50.954;6.642;2023-04-04T02:56:11;1.10;99.90
15949;DHT22;14848;50.954;6.642;2023-04-04T02:58:37;1.10;99.90
15949;DHT22;14848;50.954;6.642;2023-04-04T03:01:03;1.00;99.90
15949;DHT22;14848;50.954;6.642;2023-04-04T03:03:28;0.90;99.90
15949;DHT22;14848;50.954;6.642;2023-04-04T03:05:54;0.80;99.90
15949;DHT22;14848;50.954;6.642;2023-04-04T03:08:20;1.30;99.90
15949;DHT22;14848;50.954;6.642;2023-04-04T03:10:46;1.10;99.90
15949;DHT22;14848;50.954;6.642;2023-04-04T03:18:05;0.80;99.90
15949;DHT22;14848;50.954;6.642;2023-04-04T03:20:31;0.70;99.90
15949;DHT22;14848;50.954;6.642;2023-04-04T03:22:57;1.10;99.90
15949;DHT22;14848;50.954;6.642;2023-04-04T03:25:23;0.70;99.90
15949;DHT22;14848;50.954;6.642;2023-04-04T03:27:49;0.80;99.90
15949;DHT22;14848;50.954;6.642;2023-04-04T03:30:14;0.90;99.90
15949;DHT22;14848;50.954;6.642;2023-04-04T03:32:40;-1.20;99.90
15949;DHT22;14848;50.954;6.642;2023-04-04T03:35:06;0.80;99.90
15949;DHT22;14848;50.954;6.642;2023-04-04T03:37:32;0.70;99.90
15949;DHT22;14848;50.954;6.642;2023-04-04T03:39:57;0.70;99.90
15949;DHT22;14848;50.954;6.642;2023-04-04T03:42:23;0.90;99.90
15949;DHT22;14848;50.954;6.642;2023-04-04T03:44:50;0.70;99.90
15949;DHT22;14848;50.954;6.642;2023-04-04T03:47:16;0.70;99.90
15949;DHT22;14848;50.954;6.642;2023-04-04T03:49:42;0.70;99.90
15949;DHT22;14848;50.954;6.642;2023-04-04T03:52:07;0.60;99.90
15949;DHT22;14848;50.954;6.642;2023-04-04T03:54:33;0.70;99.90
15949;DHT22;14848;50.954;6.642;2023-04-04T03:56:59;0.50;99.90
15949;DHT22;14848;50.954;6.642;2023-04-04T03:59:24;0.50;99.90
15949;DHT22;14848;50.954;6.642;2023-04-04T04:01:50;0.40;99.90
15949;DHT22;14848;50.954;6.642;2023-04-04T04:04:16;0.40;99.90
15949;DHT22;14848;50.954;6.642;2023-04-04T04:06:42;0.40;99.90
15949;DHT22;14848;50.954;6.642;2023-04-04T04:09:08;0.50;99.90
15949;DHT22;14848;50.954;6.642;2023-04-04T04:11:35;0.40;99.90
15949;DHT22;14848;50.954;6.642;2023-04-04T04:14:01;0.40;99.90
15949;DHT22;14848;50.954;6.642;2023-04-04T04:16:28;0.30;99.90
15949;DHT22;14848;50.954;6.642;2023-04-04T04:21:19;0.20;99.90
15949;DHT22;14848;50.954;6.642;2023-04-04T04:23:45;0.20;99.90
15949;DHT22;14848;50.954;6.642;2023-04-04T04:33:30;0.30;99.90
15949;DHT22;14848;50.954;6.642;2023-04-04T04:35:59;0.30;99.90
15949;DHT22;14848;50.954;6.642;2023-04-04T04:38:25;0.30;99.90
15949;DHT22;14848;50.954;6.642;2023-04-04T04:40:51;0.30;99.90
15949;DHT22;14848;50.954;6.642;2023-04-04T04:43:17;0.30;99.90
15949;DHT22;14848;50.954;6.642;2023-04-04T04:45:43;0.10;99.90
15949;DHT22;14848;50.954;6.642;2023-04-04T04:48:08;0.00;99.90
15949;DHT22;14848;50.954;6.642;2023-04-04T04:50:34;0.10;99.90
15949;DHT22;14848;50.954;6.642;2023-04-04T05:53:52;6.50;99.90
15949;DHT22;14848;50.954;6.642;2023-04-04T05:56:18;6.90;99.90
15949;DHT22;14848;50.954;6.642;2023-04-04T06:08:29;7.40;99.90
15949;DHT22;14848;50.954;6.642;2023-04-04T06:10:54;6.80;99.90
15949;DHT22;14848;50.954;6.642;2023-04-04T06:13:20;6.80;99.90
15949;DHT22;14848;50.954;6.642;2023-04-04T06:15:46;7.30;99.90
15949;DHT22;14848;50.954;6.642;2023-04-04T06:23:03;7.90;99.90
15949;DHT22;14848;50.954;6.642;2023-04-04T06:25:29;10.20;99.90
15949;DHT22;14848;50.954;6.642;2023-04-04T06:27:55;10.00;99.90
15949;DHT22;14848;50.954;6.642;2023-04-04T06:30:21;10.00;99.90
15949;DHT22;14848;50.954;6.642;2023-04-04T06:32:46;10.10;99.90
15949;DHT22;14848;50.954;6.642;2023-04-04T06:35:12;10.50;99.90
15949;DHT22;14848;50.954;6.642;2023-04-04T06:37:38;10.20;99.90
15949;DHT22;14848;50.954;6.642;2023-04-04T06:40:03;10.10;99.90
15949;DHT22;14848;50.954;6.642;2023-04-04T06:42:29;10.50;99.90
15949;DHT22;14848;50.954;6.642;2023-04-04T06:44:55;10.30;99.90
15949;DHT22;14848;50.954;6.642;2023-04-04T06:47:20;10.30;99.90
15949;DHT22;14848;50.954;6.642;2023-04-04T06:49:46;10.10;99.90
15949;DHT22;14848;50.954;6.642;2023-04-04T08:05:18;5.00;99.90
15949;DHT22;14848;50.954;6.642;2023-04-04T08:07:44;4.80;99.90
15949;DHT22;14848;50.954;6.642;2023-04-04T08:10:09;4.90;99.90
15949;DHT22;14848;50.954;6.642;2023-04-04T08:12:35;4.80;99.90
15949;DHT22;14848;50.954;6.642;2023-04-04T08:15:01;4.70;99.90
15949;DHT22;14848;50.954;6.642;2023-04-04T08:17:27;4.70;99.90
15949;DHT22;14848;50.954;6.642;2023-04-04T08:19:53;4.80;99.90
15949;DHT22;14848;50.954;6.642;2023-04-04T08:24:44;4.80;99.90
15949;DHT22;14848;50.954;6.642;2023-04-04T08:29:37;4.80;99.90
15949;DHT22;14848;50.954;6.642;2023-04-04T08:32:03;4.80;99.90
15949;DHT22;14848;50.954;6.642;2023-04-04T08:34:29;4.90;99.90
15949;DHT22;14848;50.954;6.642;2023-04-04T08:36:55;4.90;99.90
15949;DHT22;14848;50.954;6.642;2023-04-04T08:39:21;5.00;99.90
15949;DHT22;14848;50.954;6.642;2023-04-04T08:41:47;5.20;99.90
15949;DHT22;14848;50.954;6.642;2023-04-04T08:44:16;4.90;99.90
15949;DHT22;14848;50.954;6.642;2023-04-04T08:46:48;5.00;99.90
15949;DHT22;14848;50.954;6.642;2023-04-04T08:49:15;5.00;99.90
15949;DHT22;14848;50.954;6.642;2023-04-04T08:54:11;5.00;99.90
15949;DHT22;14848;50.954;6.642;2023-04-04T08:56:37;5.20;99.90
15949;DHT22;14848;50.954;6.642;2023-04-04T08:59:03;5.20;99.90
15949;DHT22;14848;50.954;6.642;2023-04-04T09:01:28;5.30;99.90
15949;DHT22;14848;50.954;6.642;2023-04-04T09:06:25;5.40;99.90
15949;DHT22;14848;50.954;6.642;2023-04-04T09:08:52;5.60;99.90
15949;DHT22;14848;50.954;6.642;2023-04-04T09:11:19;5.80;99.90
15949;DHT22;14848;50.954;6.642;2023-04-04T09:13:48;5.70;99.90
15949;DHT22;14848;50.954;6.642;2023-04-04T09:18:41;5.80;99.90
15949;DHT22;14848;50.954;6.642;2023-04-04T09:21:10;5.80;99.90
15949;DHT22;14848;50.954;6.642;2023-04-04T09:26:03;5.80;99.90
15949;DHT22;14848;50.954;6.642;2023-04-04T09:28:30;5.90;99.90
15949;DHT22;14848;50.954;6.642;2023-04-04T09:31:00;6.00;99.90
15949;DHT22;14848;50.954;6.642;2023-04-04T09:33:26;6.10;99.90
15949;DHT22;14848;50.954;6.642;2023-04-04T09:36:01;6.10;99.90
15949;DHT22;14848;50.954;6.642;2023-04-04T09:38:28;6.30;99.90
15949;DHT22;14848;50.954;6.642;2023-04-04T09:40:55;6.30;99.90
15949;DHT22;14848;50.954;6.642;2023-04-04T09:43:23;6.40;99.90
15949;DHT22;14848;50.954;6.642;2023-04-04T09:45:49;6.40;99.90
15949;DHT22;14848;50.954;6.642;2023-04-04T09:48:32;6.30;99.90
15949;DHT22;14848;50.954;6.642;2023-04-04T09:50:59;6.20;99.90
15949;DHT22;14848;50.954;6.642;2023-04-04T09:53:28;6.10;99.90
15949;DHT22;14848;50.954;6.642;2023-04-04T10:00:55;6.20;99.90
15949;DHT22;14848;50.954;6.642;2023-04-04T10:03:24;6.20;99.90
15949;DHT22;14848;50.954;6.642;2023-04-04T10:06:04;6.30;99.90
15949;DHT22;14848;50.954;6.642;2023-04-04T10:08:30;6.40;99.90
15949;DHT22;14848;50.954;6.642;2023-04-04T10:13:29;6.50;99.90
15949;DHT22;14848;50.954;6.642;2023-04-04T10:15:56;6.50;99.90
15949;DHT22;14848;50.954;6.642;2023-04-04T10:18:27;6.60;99.90
15949;DHT22;14848;50.954;6.642;2023-04-04T10:20:58;6.80;99.90
15949;DHT22;14848;50.954;6.642;2023-04-04T10:23:25;6.60;99.90
15949;DHT22;14848;50.954;6.642;2023-04-04T10:25:54;6.80;99.90
15949;DHT22;14848;50.954;6.642;2023-04-04T10:28:20;6.70;99.90
15949;DHT22;14848;50.954;6.642;2023-04-04T10:36:49;6.70;99.90
15949;DHT22;14848;50.954;6.642;2023-04-04T10:39:26;6.90;99.90
15949;DHT22;14848;50.954;6.642;2023-04-04T10:41:54;7.00;99.90
15949;DHT22;14848;50.954;6.642;2023-04-04T10:44:36;7.00;99.90
15949;DHT22;14848;50.954;6.642;2023-04-04T12:17:19;8.90;99.90
15949;DHT22;14848;50.954;6.642;2023-04-04T12:19:46;8.90;99.90
15949;DHT22;14848;50.954;6.642;2023-04-04T12:22:12;8.80;99.90
15949;DHT22;14848;50.954;6.642;2023-04-04T12:24:37;8.90;99.90
15949;DHT22;14848;50.954;6.642;2023-04-04T12:27:04;8.80;99.90
15949;DHT22;14848;50.954;6.642;2023-04-04T12:29:31;8.90;99.90
15949;DHT22;14848;50.954;6.642;2023-04-04T12:32:01;9.00;99.90
15949;DHT22;14848;50.954;6.642;2023-04-04T12:34:38;8.80;99.90
15949;DHT22;14848;50.954;6.642;2023-04-04T12:37:08;8.90;99.90
15949;DHT22;14848;50.954;6.642;2023-04-04T12:44:35;9.10;99.90
15949;DHT22;14848;50.954;6.642;2023-04-04T12:47:05;8.90;99.90
15949;DHT22;14848;50.954;6.642;2023-04-04T12:49:43;8.90;99.90
15949;DHT22;14848;50.954;6.642;2023-04-04T12:52:29;9.10;99.90
15949;DHT22;14848;50.954;6.642;2023-04-04T12:55:06;9.40;99.90
15949;DHT22;14848;50.954;6.642;2023-04-04T12:57:37;9.50;99.90
15949;DHT22;14848;50.954;6.642;2023-04-04T13:00:03;9.60;99.90
15949;DHT22;14848;50.954;6.642;2023-04-04T13:02:34;9.50;99.90
15949;DHT22;14848;50.954;6.642;2023-04-04T13:05:01;9.60;99.90
15949;DHT22;14848;50.954;6.642;2023-04-04T13:07:30;9.60;99.90
15949;DHT22;14848;50.954;6.642;2023-04-04T13:10:00;9.70;99.90
15949;DHT22;14848;50.954;6.642;2023-04-04T13:12:55;9.70;99.90
15949;DHT22;14848;50.954;6.642;2023-04-04T13:15:21;9.80;99.90
15949;DHT22;14848;50.954;6.642;2023-04-04T13:17:49;10.00;99.90
15949;DHT22;14848;50.954;6.642;2023-04-04T13:20:16;10.00;99.90
15949;DHT22;14848;50.954;6.642;2023-04-04T13:22:43;10.20;99.90
15949;DHT22;14848;50.954;6.642;2023-04-04T13:25:10;10.30;99.90
15949;DHT22;14848;50.954;6.642;2023-04-04T13:27:36;10.20;99.90
15949;DHT22;14848;50.954;6.642;2023-04-04T13:30:05;8.10;99.90
15949;DHT22;14848;50.954;6.642;2023-04-04T13:32:32;9.90;99.90
15949;DHT22;14848;50.954;6.642;2023-04-04T13:34:57;9.90;99.90
15949;DHT22;14848;50.954;6.642;2023-04-04T13:37:23;10.00;99.90
15949;DHT22;14848;50.954;6.642;2023-04-04T13:39:49;9.90;99.90
15949;DHT22;14848;50.954;6.642;2023-04-04T13:42:15;9.90;99.90
15949;DHT22;14848;50.954;6.642;2023-04-04T13:44:41;9.90;99.90
15949;DHT22;14848;50.954;6.642;2023-04-04T13:47:07;10.00;99.90
15949;DHT22;14848;50.954;6.642;2023-04-04T13:49:32;10.30;99.90
15949;DHT22;14848;50.954;6.642;2023-04-04T13:51:58;10.40;99.90
15949;DHT22;14848;50.954;6.642;2023-04-04T13:54:24;10.50;99.90
15949;DHT22;14848;50.954;6.642;2023-04-04T13:56:49;10.60;99.90
15949;DHT22;14848;50.954;6.642;2023-04-04T13:59:16;10.60;99.90
15949;DHT22;14848;50.954;6.642;2023-04-04T14:01:41;10.50;99.90
15949;DHT22;14848;50.954;6.642;2023-04-04T14:04:07;10.50;99.90
15949;DHT22;14848;50.954;6.642;2023-04-04T14:06:33;10.40;99.90
15949;DHT22;14848;50.954;6.642;2023-04-04T14:08:59;10.40;99.90
15949;DHT22;14848;50.954;6.642;2023-04-04T14:11:24;10.30;99.90
15949;DHT22;14848;50.954;6.642;2023-04-04T14:13:55;10.40;99.90
15949;DHT22;14848;50.954;6.642;2023-04-04T14:16:21;10.50;99.90
15949;DHT22;14848;50.954;6.642;2023-04-04T14:18:48;10.50;99.90
15949;DHT22;14848;50.954;6.642;2023-04-04T14:21:14;10.30;99.90
15949;DHT22;14848;50.954;6.642;2023-04-04T14:23:39;10.10;99.90
15949;DHT22;14848;50.954;6.642;2023-04-04T14:26:05;10.00;99.90
15949;DHT22;14848;50.954;6.642;2023-04-04T14:28:31;10.00;99.90
15949;DHT22;14848;50.954;6.642;2023-04-04T14:30:58;10.10;99.90
15949;DHT22;14848;50.954;6.642;2023-04-04T14:33:23;10.20;99.90
15949;DHT22;14848;50.954;6.642;2023-04-04T14:35:49;10.40;99.90
15949;DHT22;14848;50.954;6.642;2023-04-04T14:38:15;10.40;99.90
15949;DHT22;14848;50.954;6.642;2023-04-04T14:40:41;10.60;99.90
15949;DHT22;14848;50.954;6.642;2023-04-04T14:43:07;10.60;99.90
15949;DHT22;14848;50.954;6.642;2023-04-04T14:45:33;10.50;99.90
15949;DHT22;14848;50.954;6.642;2023-04-04T14:47:59;10.90;99.90
15949;DHT22;14848;50.954;6.642;2023-04-04T14:50:25;10.70;99.90
15949;DHT22;14848;50.954;6.642;2023-04-04T14:52:51;10.60;99.90
15949;DHT22;14848;50.954;6.642;2023-04-04T14:55:20;10.60;99.90
15949;DHT22;14848;50.954;6.642;2023-04-04T14:57:48;10.70;99.90
15949;DHT22;14848;50.954;6.642;2023-04-04T15:00:13;10.60;99.90
15949;DHT22;14848;50.954;6.642;2023-04-04T15:02:40;10.70;99.90
15949;DHT22;14848;50.954;6.642;2023-04-04T15:05:06;10.70;99.90
15949;DHT22;14848;50.954;6.642;2023-04-04T15:07:32;10.80;99.90
15949;DHT22;14848;50.954;6.642;2023-04-04T15:09:59;10.90;99.90
15949;DHT22;14848;50.954;6.642;2023-04-04T15:12:24;10.90;99.90
15949;DHT22;14848;50.954;6.642;2023-04-04T15:14:50;10.80;99.90
15949;DHT22;14848;50.954;6.642;2023-04-04T15:17:16;11.00;99.90
15949;DHT22;14848;50.954;6.642;2023-04-04T15:19:41;11.10;99.90
15949;DHT22;14848;50.954;6.642;2023-04-04T15:22:07;11.20;99.90
15949;DHT22;14848;50.954;6.642;2023-04-04T15:24:32;11.10;99.90
15949;DHT22;14848;50.954;6.642;2023-04-04T15:26:59;11.10;99.90
15949;DHT22;14848;50.954;6.642;2023-04-04T15:29:25;11.30;99.90
15949;DHT22;14848;50.954;6.642;2023-04-04T15:31:51;11.40;99.90
15949;DHT22;14848;50.954;6.642;2023-04-04T15:34:17;11.40;99.90
15949;DHT22;14848;50.954;6.642;2023-04-04T15:36:42;11.30;99.90
15949;DHT22;14848;50.954;6.642;2023-04-04T15:39:08;11.30;99.90
15949;DHT22;14848;50.954;6.642;2023-04-04T15:41:36;11.30;99.90
15949;DHT22;14848;50.954;6.642;2023-04-04T15:44:02;11.30;99.90
15949;DHT22;14848;50.954;6.642;2023-04-04T15:46:30;11.20;99.90
15949;DHT22;14848;50.954;6.642;2023-04-04T15:48:55;11.10;99.90
15949;DHT22;14848;50.954;6.642;2023-04-04T15:51:21;11.20;99.90
15949;DHT22;14848;50.954;6.642;2023-04-04T15:53:47;11.10;99.90
15949;DHT22;14848;50.954;6.642;2023-04-04T15:56:13;11.00;99.90
15949;DHT22;14848;50.954;6.642;2023-04-04T15:58:38;11.10;99.90
15949;DHT22;14848;50.954;6.642;2023-04-04T16:01:07;11.10;99.90
15949;DHT22;14848;50.954;6.642;2023-04-04T16:03:33;11.00;99.90
15949;DHT22;14848;50.954;6.642;2023-04-04T16:05:59;11.00;99.90
15949;DHT22;14848;50.954;6.642;2023-04-04T16:08:25;10.80;99.90
15949;DHT22;14848;50.954;6.642;2023-04-04T16:10:50;10.70;99.90
15949;DHT22;14848;50.954;6.642;2023-04-04T16:13:16;10.80;99.90
15949;DHT22;14848;50.954;6.642;2023-04-04T16:15:42;10.70;99.90
15949;DHT22;14848;50.954;6.642;2023-04-04T16:18:08;10.70;99.90
15949;DHT22;14848;50.954;6.642;2023-04-04T16:20:34;10.60;99.90
15949;DHT22;14848;50.954;6.642;2023-04-04T16:23:00;10.50;99.90
15949;DHT22;14848;50.954;6.642;2023-04-04T16:25:25;10.40;99.90
15949;DHT22;14848;50.954;6.642;2023-04-04T16:27:51;9.90;99.90
15949;DHT22;14848;50.954;6.642;2023-04-04T16:30:17;10.30;99.90
15949;DHT22;14848;50.954;6.642;2023-04-04T16:32:43;10.30;99.90
15949;DHT22;14848;50.954;6.642;2023-04-04T16:35:11;10.40;99.90
15949;DHT22;14848;50.954;6.642;2023-04-04T16:37:36;10.50;99.90
15949;DHT22;14848;50.954;6.642;2023-04-04T16:40:03;10.50;99.90
15949;DHT22;14848;50.954;6.642;2023-04-04T16:42:29;10.50;99.90
15949;DHT22;14848;50.954;6.642;2023-04-04T16:44:55;10.50;99.90
15949;DHT22;14848;50.954;6.642;2023-04-04T16:47:21;10.40;99.90
15949;DHT22;14848;50.954;6.642;2023-04-04T16:49:46;10.30;99.90
15949;DHT22;14848;50.954;6.642;2023-04-04T16:52:13;10.20;99.90
15949;DHT22;14848;50.954;6.642;2023-04-04T16:54:40;10.20;99.90
15949;DHT22;14848;50.954;6.642;2023-04-04T16:57:07;10.10;99.90
15949;DHT22;14848;50.954;6.642;2023-04-04T16:59:33;10.00;99.90
15949;DHT22;14848;50.954;6.642;2023-04-04T17:02:05;9.80;99.90
15949;DHT22;14848;50.954;6.642;2023-04-04T17:04:35;9.80;99.90
15949;DHT22;14848;50.954;6.642;2023-04-04T17:07:03;9.80;99.90
15949;DHT22;14848;50.954;6.642;2023-04-04T17:09:29;9.70;99.90
15949;DHT22;14848;50.954;6.642;2023-04-04T17:11:55;9.60;99.90
15949;DHT22;14848;50.954;6.642;2023-04-04T17:14:23;9.50;99.90
15949;DHT22;14848;50.954;6.642;2023-04-04T17:16:49;9.40;99.90
15949;DHT22;14848;50.954;6.642;2023-04-04T17:19:14;9.40;99.90
15949;DHT22;14848;50.954;6.642;2023-04-04T17:21:40;9.40;99.90
15949;DHT22;14848;50.954;6.642;2023-04-04T17:24:06;9.30;99.90
15949;DHT22;14848;50.954;6.642;2023-04-04T17:26:32;9.20;99.90
15949;DHT22;14848;50.954;6.642;2023-04-04T17:28:57;9.00;99.90
15949;DHT22;14848;50.954;6.642;2023-04-04T17:31:23;9.00;99.90
15949;DHT22;14848;50.954;6.642;2023-04-04T17:33:49;8.90;99.90
15949;DHT22;14848;50.954;6.642;2023-04-04T17:38:40;8.70;99.90
15949;DHT22;14848;50.954;6.642;2023-04-04T17:41:08;8.60;99.90
15949;DHT22;14848;50.954;6.642;2023-04-04T17:43:33;8.50;99.90
15949;DHT22;14848;50.954;6.642;2023-04-04T17:45:59;8.50;99.90
15949;DHT22;14848;50.954;6.642;2023-04-04T17:48:27;8.40;99.90
15949;DHT22;14848;50.954;6.642;2023-04-04T17:50:56;8.30;99.90
15949;DHT22;14848;50.954;6.642;2023-04-04T17:53:22;8.20;99.90
15949;DHT22;14848;50.954;6.642;2023-04-04T17:55:48;8.20;99.90
15949;DHT22;14848;50.954;6.642;2023-04-04T17:58:15;8.00;99.90
15949;DHT22;14848;50.954;6.642;2023-04-04T18:00:41;7.80;99.90
15949;DHT22;14848;50.954;6.642;2023-04-04T18:03:06;7.70;99.90
15949;DHT22;14848;50.954;6.642;2023-04-04T18:05:32;7.50;99.90
15949;DHT22;14848;50.954;6.642;2023-04-04T18:07:58;7.30;99.90
15949;DHT22;14848;50.954;6.642;2023-04-04T18:10:24;7.30;99.90
15949;DHT22;14848;50.954;6.642;2023-04-04T18:12:50;7.20;99.90
15949;DHT22;14848;50.954;6.642;2023-04-04T18:15:16;7.20;99.90
15949;DHT22;14848;50.954;6.642;2023-04-04T18:17:42;5.80;99.90
15949;DHT22;14848;50.954;6.642;2023-04-04T18:20:08;7.10;99.90
15949;DHT22;14848;50.954;6.642;2023-04-04T18:22:34;7.00;99.90
15949;DHT22;14848;50.954;6.642;2023-04-04T18:25:00;7.00;99.90
15949;DHT22;14848;50.954;6.642;2023-04-04T18:27:26;6.90;99.90
15949;DHT22;14848;50.954;6.642;2023-04-04T18:29:52;6.90;99.90
15949;DHT22;14848;50.954;6.642;2023-04-04T18:32:17;6.80;99.90
15949;DHT22;14848;50.954;6.642;2023-04-04T18:34:45;6.80;99.90
15949;DHT22;14848;50.954;6.642;2023-04-04T18:37:11;6.70;99.90
15949;DHT22;14848;50.954;6.642;2023-04-04T18:39:37;6.60;99.90
15949;DHT22;14848;50.954;6.642;2023-04-04T18:42:02;6.50;99.90
15949;DHT22;14848;50.954;6.642;2023-04-04T18:44:28;6.50;99.90
15949;DHT22;14848;50.954;6.642;2023-04-04T18:46:55;6.50;99.90
15949;DHT22;14848;50.954;6.642;2023-04-04T18:49:23;6.40;99.90
15949;DHT22;14848;50.954;6.642;2023-04-04T18:51:48;6.40;99.90
15949;DHT22;14848;50.954;6.642;2023-04-04T18:54:14;6.40;99.90
15949;DHT22;14848;50.954;6.642;2023-04-04T18:59:05;6.20;99.90
15949;DHT22;14848;50.954;6.642;2023-04-04T20:38:25;5.30;99.90
15949;DHT22;14848;50.954;6.642;2023-04-04T20:40:51;5.30;99.90
15949;DHT22;14848;50.954;6.642;2023-04-04T20:43:17;5.20;99.90
15949;DHT22;14848;50.954;6.642;2023-04-04T20:45:42;5.10;99.90
15949;DHT22;14848;50.954;6.642;2023-04-04T20:48:37;5.10;99.90
15949;DHT22;14848;50.954;6.642;2023-04-04T20:51:30;5.00;99.90
15949;DHT22;14848;50.954;6.642;2023-04-04T20:53:58;4.90;99.90
15949;DHT22;14848;50.954;6.642;2023-04-04T20:59:31;4.80;99.90
15949;DHT22;14848;50.954;6.642;2023-04-04T21:02:12;4.80;99.90
15949;DHT22;14848;50.954;6.642;2023-04-04T21:04:39;4.70;99.90
15949;DHT22;14848;50.954;6.642;2023-04-04T21:07:05;4.70;99.90
15949;DHT22;14848;50.954;6.642;2023-04-04T21:09:31;4.60;99.90
15949;DHT22;14848;50.954;6.642;2023-04-04T21:11:58;4.60;99.90
15949;DHT22;14848;50.954;6.642;2023-04-04T21:14:32;4.60;99.90
15949;DHT22;14848;50.954;6.642;2023-04-04T21:16:58;4.60;99.90
15949;DHT22;14848;50.954;6.642;2023-04-04T21:19:24;4.60;99.90
15949;DHT22;14848;50.954;6.642;2023-04-04T21:21:50;4.50;99.90
15949;DHT22;14848;50.954;6.642;2023-04-04T21:24:16;4.40;99.90
15949;DHT22;14848;50.954;6.642;2023-04-04T21:26:42;4.30;99.90
15949;DHT22;14848;50.954;6.642;2023-04-04T21:29:21;4.30;99.90
15949;DHT22;14848;50.954;6.642;2023-04-04T21:31:49;4.30;99.90
15949;DHT22;14848;50.954;6.642;2023-04-04T21:34:17;4.30;99.90
15949;DHT22;14848;50.954;6.642;2023-04-04T21:36:44;4.20;99.90
15949;DHT22;14848;50.954;6.642;2023-04-04T21:41:48;4.10;99.90
15949;DHT22;14848;50.954;6.642;2023-04-04T21:44:14;4.10;99.90
15949;DHT22;14848;50.954;6.642;2023-04-04T21:46:40;4.10;99.90
15949;DHT22;14848;50.954;6.642;2023-04-04T21:49:07;4.00;99.90
15949;DHT22;14848;50.954;6.642;2023-04-04T21:51:33;4.00;99.90
15949;DHT22;14848;50.954;6.642;2023-04-04T21:54:00;3.90;99.90
15949;DHT22;14848;50.954;6.642;2023-04-04T21:56:25;3.80;99.90
15949;DHT22;14848;50.954;6.642;2023-04-04T21:58:56;3.70;99.90
15949;DHT22;14848;50.954;6.642;2023-04-04T22:03:48;3.60;99.90
15949;DHT22;14848;50.954;6.642;2023-04-04T22:06:13;3.50;99.90
15949;DHT22;14848;50.954;6.642;2023-04-04T22:08:40;3.40;99.90
15949;DHT22;14848;50.954;6.642;2023-04-04T22:11:06;3.40;99.90
15949;DHT22;14848;50.954;6.642;2023-04-04T22:13:31;3.30;99.90
15949;DHT22;14848;50.954;6.642;2023-04-04T22:16:01;3.30;99.90
15949;DHT22;14848;50.954;6.642;2023-04-04T22:18:30;3.20;99.90
15949;DHT22;14848;50.954;6.642;2023-04-04T22:20:58;3.20;99.90
15949;DHT22;14848;50.954;6.642;2023-04-04T22:23:29;3.20;99.90
15949;DHT22;14848;50.954;6.642;2023-04-04T22:26:10;3.20;99.90
15949;DHT22;14848;50.954;6.642;2023-04-04T22:28:38;3.20;99.90